createdAt,value
2023-04-28T00:10:02.222Z,8.2
2023-04-28T00:20:02.228Z,8.2
2023-04-28T00:30:02.884Z,7.9
2023-04-28T00:40:01.327Z,8.1
2023-04-28T00:50:01.606Z,7.8
2023-04-28T01:00:01.487Z,7.8
2023-04-28T01:10:04.107Z,7.9
2023-04-28T01:20:02.906Z,7.9
2023-04-28T01:30:03.532Z,7.8
2023-04-28T01:40:01.090Z,7.9
2023-04-28T01:50:01.376Z,7.7
2023-04-28T02:00:02.372Z,7.7
2023-04-28T02:10:01.500Z,7.5
2023-04-28T02:20:01.118Z,7.4
2023-04-28T02:30:01.059Z,7.4
2023-04-28T02:40:00.999Z,7.1
2023-04-28T02:50:01.062Z,6.8
2023-04-28T03:10:01.276Z,7.1
2023-04-28T03:20:01.838Z,6.8
2023-04-28T03:30:02.570Z,7.2
2023-04-28T03:50:01.320Z,7.0
2023-04-28T04:00:01.305Z,6.9
2023-04-28T04:10:04.026Z,6.7
2023-04-28T04:20:01.016Z,6.7
2023-04-28T04:30:01.835Z,7.2
2023-04-28T04:50:01.121Z,7.3
2023-04-28T05:00:00.991Z,7.4
2023-04-28T05:10:01.105Z,7.8
2023-04-28T05:20:01.481Z,8.0
2023-04-28T05:30:00.438Z,8.1
2023-04-28T05:40:01.076Z,9.0
2023-04-28T05:50:01.762Z,9.4
2023-04-28T06:00:02.759Z,9.9
2023-04-28T06:10:01.275Z,10.6
2023-04-28T06:20:00.987Z,10.7
2023-04-28T06:30:01.466Z,10.8
2023-04-28T06:40:01.724Z,11.4
2023-04-28T06:50:02.141Z,11.4
2023-04-28T07:00:01.305Z,12.2
2023-04-28T07:10:02.148Z,12.3
2023-04-28T07:20:02.343Z,12.7
2023-04-28T07:30:04.611Z,12.8
2023-04-28T07:40:01.851Z,13.3
2023-04-28T07:50:01.142Z,13.8
2023-04-28T08:00:01.381Z,13.2
2023-04-28T08:10:01.263Z,13.9
2023-04-28T08:20:01.081Z,14.5
2023-04-28T08:30:01.374Z,14.6
2023-04-28T08:40:00.390Z,15.5
2023-04-28T08:50:01.063Z,15.7
2023-04-28T09:00:01.026Z,15.4
2023-04-28T09:10:01.022Z,15.6
2023-04-28T09:20:01.179Z,16.5
2023-04-28T09:30:01.898Z,16.6
2023-04-28T09:40:01.106Z,16.9
2023-04-28T09:50:01.469Z,16.5
2023-04-28T10:00:02.405Z,17.1
2023-04-28T10:10:02.022Z,17.3
2023-04-28T10:20:01.076Z,17.5
2023-04-28T10:30:01.542Z,17.7
2023-04-28T10:40:01.036Z,19.1
2023-04-28T10:50:02.484Z,19.0
2023-04-28T11:00:02.160Z,20.9
2023-04-28T11:10:01.481Z,20.0
2023-04-28T11:20:02.211Z,18.7
2023-04-28T11:30:04.085Z,19.3
2023-04-28T11:40:02.328Z,19.1
2023-04-28T12:00:01.056Z,19.2
2023-04-28T12:10:01.101Z,20.3
2023-04-28T12:20:01.284Z,20.9
2023-04-28T12:30:01.038Z,20.7
2023-04-28T12:40:02.131Z,20.2
2023-04-28T12:50:03.324Z,20.0
2023-04-28T13:00:01.656Z,20.5
2023-04-28T13:10:01.611Z,20.4
2023-04-28T13:20:01.301Z,20.4
2023-04-28T13:30:01.307Z,21.4
2023-04-28T13:40:01.470Z,20.6
2023-04-28T13:50:01.312Z,19.6
2023-04-28T14:00:00.961Z,19.7
2023-04-28T14:10:01.962Z,19.4
2023-04-28T14:20:01.250Z,19.5
2023-04-28T14:30:00.477Z,18.5
2023-04-28T14:40:01.577Z,18.4
2023-04-28T14:50:04.321Z,18.7
2023-04-28T15:00:02.743Z,18.6
2023-04-28T15:10:01.928Z,18.6
2023-04-28T15:20:02.245Z,18.5
2023-04-28T15:30:02.029Z,18.3
2023-04-28T15:40:03.464Z,17.3
2023-04-28T15:50:01.473Z,17.6
2023-04-28T16:00:01.118Z,17.3
2023-04-28T16:10:01.938Z,17.8
2023-04-28T16:20:01.006Z,17.3
2023-04-28T16:30:01.063Z,17.3
2023-04-28T16:40:01.862Z,17.1
2023-04-28T16:50:02.351Z,17.0
2023-04-28T17:00:02.541Z,16.6
2023-04-28T17:10:03.715Z,17.1
2023-04-28T17:20:01.424Z,17.3
2023-04-28T17:30:01.549Z,17.0
2023-04-28T17:40:01.129Z,17.0
2023-04-28T17:50:01.623Z,16.2
2023-04-28T18:00:01.953Z,16.1
2023-04-28T18:10:01.521Z,15.7
2023-04-28T18:20:01.005Z,15.7
2023-04-28T18:30:00.394Z,16.0
2023-04-28T18:40:01.969Z,15.4
2023-04-28T18:50:01.031Z,15.2
2023-04-28T19:00:01.341Z,15.7
2023-04-28T19:10:01.511Z,15.5
2023-04-28T19:30:01.917Z,15.3
2023-04-28T19:40:01.327Z,14.9
2023-04-28T19:50:03.768Z,15.3
2023-04-28T20:00:01.482Z,15.3
2023-04-28T20:10:01.224Z,15.2
2023-04-28T20:20:01.014Z,15.5
2023-04-28T20:30:01.289Z,15.4
2023-04-28T20:40:01.151Z,15.4
2023-04-28T20:50:01.023Z,15.2
2023-04-28T21:00:00.387Z,15.2
2023-04-28T21:10:01.039Z,15.0
2023-04-28T21:20:01.107Z,14.8
2023-04-28T21:30:01.483Z,14.9
2023-04-28T21:40:01.635Z,14.9
2023-04-28T21:50:01.060Z,14.9
2023-04-28T22:00:01.095Z,14.9
2023-04-28T22:10:02.449Z,14.9
2023-04-28T22:20:01.855Z,14.4
2023-04-28T22:30:01.978Z,14.8
2023-04-28T22:40:01.480Z,14.4
2023-04-28T22:50:01.037Z,14.8
2023-04-28T23:00:01.121Z,14.6
2023-04-28T23:10:01.087Z,14.9
2023-04-28T23:20:01.494Z,14.8
2023-04-28T23:30:01.135Z,14.4
2023-04-28T23:40:01.232Z,14.6
2023-04-28T23:50:01.287Z,14.7
